createdAt,value
2022-08-26T00:00:54.386Z,47.98
2022-08-26T00:03:25.172Z,47.63
2022-08-26T00:05:55.028Z,47.09
2022-08-26T00:08:25.622Z,47.22
2022-08-26T00:10:55.255Z,48.97
2022-08-26T00:13:25.439Z,48.83
2022-08-26T00:15:54.827Z,49.06
2022-08-26T00:18:24.227Z,47.50
2022-08-26T00:20:58.120Z,46.77
2022-08-26T00:23:28.941Z,47.15
2022-08-26T00:25:58.576Z,49.09
2022-08-26T00:28:28.469Z,48.47
2022-08-26T00:30:58.120Z,48.08
2022-08-26T00:33:27.727Z,48.02
2022-08-26T00:35:57.329Z,48.72
2022-08-26T00:38:27.342Z,48.54
2022-08-26T00:40:59.062Z,48.80
2022-08-26T00:43:30.445Z,48.72
2022-08-26T00:46:46.841Z,48.90
2022-08-26T00:49:32.558Z,49.03
2022-08-26T00:52:04.341Z,49.75
2022-08-26T00:54:37.731Z,50.36
2022-08-26T00:57:16.718Z,50.07
2022-08-26T00:59:49.397Z,50.49
2022-08-26T01:02:21.120Z,50.57
2022-08-26T01:04:58.016Z,51.63
2022-08-26T01:07:31.594Z,51.55
2022-08-26T01:10:03.802Z,51.19
2022-08-26T01:12:40.290Z,51.27
2022-08-26T01:15:11.984Z,50.87
2022-08-26T01:17:41.728Z,51.17
2022-08-26T01:20:36.083Z,50.89
2022-08-26T01:23:11.437Z,51.13
2022-08-26T01:25:53.152Z,51.08
2022-08-26T01:28:26.127Z,51.35
2022-08-26T01:30:56.040Z,51.02
2022-08-26T01:33:30.786Z,51.34
2022-08-26T01:36:12.159Z,51.03
2022-08-26T01:38:42.109Z,51.26
2022-08-26T01:41:16.294Z,51.25
2022-08-26T01:43:52.152Z,51.23
2022-08-26T01:46:23.795Z,51.54
2022-08-26T01:48:54.404Z,51.02
2022-08-26T01:51:25.650Z,51.00
2022-08-26T01:53:56.069Z,51.32
2022-08-26T01:56:26.052Z,51.14
2022-08-26T01:59:07.031Z,51.49
2022-08-26T02:01:39.921Z,51.36
2022-08-26T02:04:35.296Z,51.62
2022-08-26T02:07:11.095Z,51.47
2022-08-26T02:09:42.351Z,51.61
2022-08-26T02:12:13.461Z,51.45
2022-08-26T02:14:53.263Z,51.26
2022-08-26T02:17:26.222Z,51.72
2022-08-26T02:19:59.116Z,51.59
2022-08-26T02:22:29.179Z,51.72
2022-08-26T02:25:01.269Z,51.77
2022-08-26T02:27:34.912Z,51.96
2022-08-26T02:30:17.223Z,51.94
2022-08-26T02:32:49.513Z,52.13
2022-08-26T02:35:22.108Z,52.04
2022-08-26T02:37:53.306Z,52.29
2022-08-26T02:40:28.405Z,52.50
2022-08-26T02:42:57.964Z,52.48
2022-08-26T02:45:29.264Z,52.60
2022-08-26T02:48:00.263Z,52.58
2022-08-26T02:50:30.075Z,52.73
2022-08-26T02:53:00.243Z,52.55
2022-08-26T02:55:30.118Z,52.62
2022-08-26T02:58:00.610Z,52.17
2022-08-26T03:00:30.388Z,52.89
2022-08-26T03:03:00.895Z,52.55
2022-08-26T03:05:30.378Z,52.33
2022-08-26T03:08:03.425Z,52.74
2022-08-26T03:10:33.565Z,52.53
2022-08-26T03:13:05.070Z,52.36
2022-08-26T03:15:34.808Z,52.65
2022-08-26T03:18:04.982Z,52.54
2022-08-26T03:20:35.470Z,52.93
2022-08-26T03:23:05.732Z,52.65
2022-08-26T03:25:40.060Z,52.71
2022-08-26T03:28:09.854Z,52.78
2022-08-26T03:30:44.682Z,52.79
2022-08-26T03:33:15.591Z,52.72
2022-08-26T03:35:46.513Z,52.81
2022-08-26T03:38:16.555Z,52.69
2022-08-26T03:40:47.428Z,53.06
2022-08-26T03:43:18.628Z,52.84
2022-08-26T03:45:48.188Z,52.52
2022-08-26T03:48:20.843Z,52.80
2022-08-26T03:50:50.104Z,52.78
2022-08-26T03:53:20.708Z,52.88
2022-08-26T03:55:51.806Z,52.85
2022-08-26T03:58:22.371Z,53.06
2022-08-26T04:00:55.728Z,52.91
2022-08-26T04:03:44.290Z,52.94
2022-08-26T04:06:14.235Z,52.69
2022-08-26T04:08:44.495Z,53.03
2022-08-26T04:11:20.367Z,53.09
2022-08-26T04:13:50.801Z,52.91
2022-08-26T04:16:21.779Z,52.98
2022-08-26T04:18:52.669Z,52.93
2022-08-26T04:21:22.773Z,53.02
2022-08-26T04:23:52.943Z,53.14
2022-08-26T04:26:25.016Z,53.14
2022-08-26T04:28:57.530Z,53.04
2022-08-26T04:31:29.122Z,53.21
2022-08-26T04:34:01.349Z,53.04
2022-08-26T04:36:31.443Z,53.17
2022-08-26T04:39:04.889Z,53.14
2022-08-26T04:41:34.686Z,53.07
2022-08-26T04:44:07.937Z,53.10
2022-08-26T04:46:39.790Z,53.35
2022-08-26T04:49:13.691Z,53.33
2022-08-26T04:51:43.916Z,53.02
2022-08-26T04:54:16.280Z,53.12
2022-08-26T04:56:48.074Z,52.91
2022-08-26T04:59:19.207Z,53.18
2022-08-26T05:01:50.998Z,52.95
2022-08-26T05:04:28.442Z,52.97
2022-08-26T05:07:02.261Z,53.20
2022-08-26T05:09:33.614Z,53.16
2022-08-26T05:12:06.463Z,52.99
2022-08-26T05:14:35.881Z,53.07
2022-08-26T05:17:06.519Z,53.03
2022-08-26T05:19:42.864Z,52.99
2022-08-26T05:22:13.111Z,53.12
2022-08-26T05:24:44.904Z,53.00
2022-08-26T05:27:15.188Z,53.08
2022-08-26T05:29:47.427Z,53.28
2022-08-26T05:32:23.869Z,53.28
2022-08-26T05:34:58.891Z,53.22
2022-08-26T05:37:32.234Z,53.01
2022-08-26T05:40:02.727Z,53.28
2022-08-26T05:42:32.322Z,53.16
2022-08-26T05:45:02.487Z,53.32
2022-08-26T05:47:32.569Z,53.27
2022-08-26T05:50:03.541Z,53.03
2022-08-26T05:52:35.940Z,53.21
2022-08-26T05:55:06.139Z,53.29
2022-08-26T05:57:40.385Z,53.42
2022-08-26T06:00:17.958Z,53.31
2022-08-26T06:02:48.373Z,53.46
2022-08-26T06:05:20.889Z,53.48
2022-08-26T06:08:09.838Z,53.08
2022-08-26T06:11:01.606Z,53.25
2022-08-26T06:13:32.292Z,53.60
2022-08-26T06:16:05.949Z,53.30
2022-08-26T06:18:44.937Z,53.43
2022-08-26T06:21:34.830Z,53.64
2022-08-26T06:24:48.544Z,53.46
2022-08-26T06:27:20.871Z,53.50
2022-08-26T06:29:50.518Z,53.46
2022-08-26T06:32:20.236Z,53.62
2022-08-26T06:34:58.319Z,53.61
2022-08-26T06:37:28.470Z,53.47
2022-08-26T06:39:58.982Z,53.32
2022-08-26T06:42:28.647Z,52.55
2022-08-26T06:45:01.015Z,50.44
2022-08-26T06:47:30.718Z,49.89
2022-08-26T06:50:00.007Z,49.87
2022-08-26T06:52:29.657Z,49.91
2022-08-26T06:54:59.425Z,49.39
2022-08-26T06:57:31.121Z,50.06
2022-08-26T07:00:01.291Z,50.36
2022-08-26T07:02:30.618Z,50.02
2022-08-26T07:05:00.304Z,49.83
2022-08-26T07:07:32.219Z,50.12
2022-08-26T07:10:02.052Z,50.51
2022-08-26T07:12:32.134Z,50.34
2022-08-26T07:15:02.549Z,50.19
2022-08-26T07:17:32.364Z,49.09
2022-08-26T07:20:05.070Z,49.04
2022-08-26T07:22:38.403Z,48.69
2022-08-26T07:25:11.860Z,48.05
2022-08-26T07:27:42.960Z,48.04
2022-08-26T07:30:14.765Z,47.76
2022-08-26T07:32:45.031Z,46.82
2022-08-26T07:35:15.795Z,47.26
2022-08-26T07:37:49.819Z,47.50
2022-08-26T07:40:24.711Z,47.57
2022-08-26T07:43:02.048Z,46.78
2022-08-26T07:45:33.935Z,46.73
2022-08-26T07:48:04.634Z,46.73
2022-08-26T07:50:50.043Z,46.67
2022-08-26T07:53:22.217Z,46.83
2022-08-26T07:55:57.162Z,47.49
2022-08-26T07:58:27.450Z,48.31
2022-08-26T08:00:58.263Z,48.27
2022-08-26T08:03:30.436Z,47.70
2022-08-26T08:06:00.646Z,47.50
2022-08-26T08:08:30.385Z,47.96
2022-08-26T08:11:02.281Z,47.06
2022-08-26T08:13:33.181Z,47.16
2022-08-26T08:16:02.904Z,46.82
2022-08-26T08:18:35.488Z,46.43
2022-08-26T08:21:25.078Z,46.24
2022-08-26T08:23:58.134Z,46.27
2022-08-26T08:26:28.718Z,46.21
2022-08-26T08:29:00.540Z,46.28
2022-08-26T08:31:56.148Z,46.78
2022-08-26T08:34:22.171Z,46.60
2022-08-26T08:36:53.275Z,46.42
2022-08-26T08:39:23.677Z,47.09
2022-08-26T08:42:07.567Z,47.24
2022-08-26T08:44:41.526Z,47.00
2022-08-26T08:47:40.372Z,47.03
2022-08-26T08:50:27.344Z,47.35
2022-08-26T08:53:13.544Z,47.34
2022-08-26T08:55:53.037Z,47.89
2022-08-26T08:58:33.861Z,47.67
2022-08-26T09:01:06.757Z,47.79
2022-08-26T09:04:05.187Z,48.07
2022-08-26T09:06:35.196Z,47.88
2022-08-26T09:09:13.989Z,48.56
2022-08-26T09:11:44.704Z,48.43
2022-08-26T09:14:14.859Z,48.90
2022-08-26T09:17:19.597Z,48.78
2022-08-26T09:19:57.772Z,49.65
2022-08-26T09:22:36.715Z,49.34
2022-08-26T09:25:12.135Z,49.62
2022-08-26T09:27:46.703Z,49.84
2022-08-26T09:30:36.089Z,50.05
2022-08-26T09:33:12.455Z,50.25
2022-08-26T09:35:50.053Z,50.39
2022-08-26T09:38:36.005Z,50.33
2022-08-26T09:41:15.528Z,50.52
2022-08-26T09:43:45.787Z,50.28
2022-08-26T09:46:30.124Z,50.99
2022-08-26T09:49:36.232Z,51.30
2022-08-26T09:52:09.752Z,51.16
2022-08-26T09:54:41.426Z,51.92
2022-08-26T09:57:28.939Z,51.96
2022-08-26T10:00:00.328Z,52.26
2022-08-26T10:02:37.156Z,52.74
2022-08-26T10:05:11.441Z,53.13
2022-08-26T10:07:49.924Z,53.43
2022-08-26T10:10:30.406Z,53.24
2022-08-26T10:13:07.970Z,53.33
2022-08-26T10:16:00.944Z,53.63
2022-08-26T10:19:00.143Z,53.60
2022-08-26T10:21:52.279Z,53.67
2022-08-26T10:24:55.296Z,54.31
2022-08-26T10:27:30.187Z,53.92
2022-08-26T10:30:09.528Z,53.60
2022-08-26T10:32:47.441Z,53.53
2022-08-26T10:35:20.338Z,53.58
2022-08-26T10:38:00.803Z,53.42
2022-08-26T10:40:55.732Z,53.65
2022-08-26T10:43:31.187Z,53.81
2022-08-26T10:46:09.061Z,53.71
2022-08-26T10:48:59.966Z,53.78
2022-08-26T10:51:37.101Z,53.80
2022-08-26T10:54:20.193Z,53.87
2022-08-26T10:57:09.644Z,54.21
2022-08-26T10:59:42.357Z,54.16
2022-08-26T11:02:25.314Z,54.33
2022-08-26T11:05:02.510Z,54.32
2022-08-26T11:07:44.063Z,54.40
2022-08-26T11:10:15.535Z,54.21
2022-08-26T11:12:49.178Z,54.45
2022-08-26T11:15:29.688Z,54.17
2022-08-26T11:18:04.668Z,54.54
2022-08-26T11:20:47.259Z,54.78
2022-08-26T11:23:25.264Z,54.45
2022-08-26T11:26:30.019Z,54.63
2022-08-26T11:29:13.258Z,54.80
2022-08-26T11:31:43.262Z,54.77
2022-08-26T11:34:16.648Z,54.90
2022-08-26T11:36:49.362Z,55.18
2022-08-26T11:39:25.758Z,55.16
2022-08-26T11:42:01.691Z,54.83
2022-08-26T11:44:49.208Z,55.08
2022-08-26T11:47:28.724Z,54.92
2022-08-26T11:50:38.200Z,55.28
2022-08-26T11:53:10.890Z,55.22
2022-08-26T11:55:47.236Z,55.14
2022-08-26T11:58:18.256Z,55.08
2022-08-26T12:00:53.987Z,55.27
2022-08-26T12:03:29.280Z,55.21
2022-08-26T12:06:00.563Z,55.29
2022-08-26T12:08:39.138Z,55.36
2022-08-26T12:11:15.252Z,55.09
2022-08-26T12:13:46.373Z,55.23
2022-08-26T12:16:26.072Z,54.80
2022-08-26T12:18:57.388Z,55.58
2022-08-26T12:21:34.783Z,55.02
2022-08-26T12:24:06.648Z,55.16
2022-08-26T12:26:39.011Z,54.95
2022-08-26T12:29:27.455Z,55.09
2022-08-26T12:32:19.677Z,55.24
2022-08-26T12:34:50.758Z,54.77
2022-08-26T12:37:22.597Z,55.27
2022-08-26T12:39:55.319Z,55.30
2022-08-26T12:42:44.502Z,54.48
2022-08-26T12:45:13.783Z,55.08
2022-08-26T12:47:45.194Z,55.28
2022-08-26T12:50:28.946Z,55.42
2022-08-26T12:53:17.976Z,55.36
2022-08-26T12:55:53.669Z,55.36
2022-08-26T12:58:40.940Z,55.07
2022-08-26T13:01:11.498Z,55.41
2022-08-26T13:03:47.485Z,55.49
2022-08-26T13:06:17.885Z,55.79
2022-08-26T13:09:13.496Z,55.75
2022-08-26T13:11:46.139Z,55.73
2022-08-26T13:14:23.889Z,55.80
2022-08-26T13:16:55.574Z,55.72
2022-08-26T13:19:33.444Z,55.36
2022-08-26T13:22:21.669Z,55.35
2022-08-26T13:24:52.128Z,55.38
2022-08-26T13:27:23.633Z,55.12
2022-08-26T13:33:15.692Z,55.45
2022-08-26T13:36:29.648Z,55.34
2022-08-26T13:39:01.317Z,55.28
2022-08-26T13:41:32.833Z,55.32
2022-08-26T13:44:08.828Z,55.17
2022-08-26T13:46:40.538Z,55.31
2022-08-26T13:49:10.566Z,55.24
2022-08-26T13:51:41.093Z,55.33
2022-08-26T13:54:10.789Z,55.21
2022-08-26T13:56:40.800Z,55.48
2022-08-26T13:59:11.615Z,55.29
2022-08-26T14:01:42.345Z,55.23
2022-08-26T14:04:16.886Z,55.36
2022-08-26T14:06:54.318Z,55.18
2022-08-26T14:09:27.968Z,55.25
2022-08-26T14:12:01.075Z,54.97
2022-08-26T14:14:37.383Z,55.35
2022-08-26T14:17:11.364Z,55.30
2022-08-26T14:19:41.473Z,54.91
2022-08-26T14:22:14.650Z,55.21
2022-08-26T14:24:44.176Z,55.13
2022-08-26T14:27:14.683Z,55.11
2022-08-26T14:30:01.803Z,55.20
2022-08-26T14:32:34.461Z,55.25
2022-08-26T14:35:05.614Z,55.12
2022-08-26T14:37:39.328Z,54.97
2022-08-26T14:40:11.371Z,55.07
2022-08-26T14:42:49.176Z,55.18
2022-08-26T14:45:26.203Z,54.90
2022-08-26T14:48:02.753Z,54.96
2022-08-26T14:50:34.311Z,54.98
2022-08-26T14:53:22.965Z,55.12
2022-08-26T14:55:56.527Z,54.98
2022-08-26T14:58:33.773Z,54.81
2022-08-26T15:01:07.040Z,55.08
2022-08-26T15:03:39.393Z,54.96
2022-08-26T15:06:10.547Z,54.95
2022-08-26T15:08:42.174Z,54.86
2022-08-26T15:11:12.696Z,54.84
2022-08-26T15:13:43.512Z,55.06
2022-08-26T15:16:15.677Z,54.83
2022-08-26T15:18:46.096Z,54.78
2022-08-26T15:21:15.962Z,54.86
2022-08-26T15:23:47.665Z,55.15
2022-08-26T15:26:21.496Z,55.05
2022-08-26T15:28:52.061Z,55.00
2022-08-26T15:31:23.740Z,55.17
2022-08-26T15:33:58.235Z,55.12
2022-08-26T15:36:31.825Z,55.00
2022-08-26T15:39:06.163Z,55.11
2022-08-26T15:41:37.665Z,55.04
2022-08-26T15:44:09.818Z,54.95
2022-08-26T15:46:39.970Z,55.06
2022-08-26T15:49:16.969Z,55.39
2022-08-26T15:51:49.653Z,54.91
2022-08-26T15:54:21.845Z,55.24
2022-08-26T15:56:53.696Z,55.18
2022-08-26T15:59:29.768Z,55.10
2022-08-26T16:02:00.741Z,55.10
2022-08-26T16:04:30.433Z,55.33
2022-08-26T16:07:00.701Z,55.09
2022-08-26T16:09:31.981Z,55.17
2022-08-26T16:12:04.043Z,55.22
2022-08-26T16:14:37.227Z,55.05
2022-08-26T16:17:06.772Z,55.01
2022-08-26T16:19:39.119Z,55.17
2022-08-26T16:22:11.275Z,55.34
2022-08-26T16:24:42.663Z,55.13
2022-08-26T16:27:15.343Z,55.12
2022-08-26T16:29:47.037Z,55.09
2022-08-26T16:32:18.319Z,55.12
2022-08-26T16:34:56.630Z,55.02
2022-08-26T16:37:28.233Z,55.14
2022-08-26T16:39:59.074Z,55.00
2022-08-26T16:42:30.333Z,54.96
2022-08-26T16:45:01.707Z,55.04
2022-08-26T16:47:32.236Z,55.28
2022-08-26T16:50:03.269Z,55.17
2022-08-26T16:52:33.190Z,55.16
2022-08-26T16:55:04.302Z,55.02
2022-08-26T16:57:35.016Z,54.88
2022-08-26T17:00:11.355Z,55.04
2022-08-26T17:02:44.293Z,54.95
2022-08-26T17:05:14.890Z,54.93
2022-08-26T17:07:46.581Z,55.05
2022-08-26T17:10:17.834Z,54.77
2022-08-26T17:12:47.378Z,55.10
2022-08-26T17:15:19.530Z,55.09
2022-08-26T17:17:49.840Z,55.11
2022-08-26T17:20:20.176Z,55.11
2022-08-26T17:22:52.466Z,55.07
2022-08-26T17:25:35.182Z,54.91
2022-08-26T17:28:05.247Z,55.12
2022-08-26T17:30:43.359Z,55.56
2022-08-26T17:33:13.017Z,55.41
2022-08-26T17:35:43.850Z,55.22
2022-08-26T17:38:13.468Z,54.85
2022-08-26T17:40:45.533Z,55.17
2022-08-26T17:43:16.144Z,55.12
2022-08-26T17:45:46.617Z,55.32
2022-08-26T17:48:16.178Z,55.19
2022-08-26T17:50:49.618Z,55.18
2022-08-26T17:53:21.680Z,55.13
2022-08-26T17:55:53.164Z,55.25
2022-08-26T17:58:25.104Z,55.21
2022-08-26T18:00:57.386Z,55.20
2022-08-26T18:03:27.200Z,55.17
2022-08-26T18:05:58.247Z,54.88
2022-08-26T18:08:27.582Z,55.01
2022-08-26T18:10:58.452Z,55.18
2022-08-26T18:13:27.954Z,55.34
2022-08-26T18:15:57.299Z,55.28
2022-08-26T18:18:26.896Z,55.37
2022-08-26T18:21:01.268Z,55.19
2022-08-26T18:23:31.578Z,55.21
2022-08-26T18:26:01.513Z,55.15
2022-08-26T18:28:32.482Z,55.20
2022-08-26T18:31:06.989Z,55.25
2022-08-26T18:33:37.974Z,55.56
2022-08-26T18:36:09.358Z,55.31
2022-08-26T18:38:38.821Z,55.21
2022-08-26T18:41:13.769Z,54.93
2022-08-26T18:43:42.983Z,55.53
2022-08-26T18:46:13.750Z,55.56
2022-08-26T18:48:43.844Z,55.13
2022-08-26T18:51:24.554Z,55.12
2022-08-26T18:53:54.689Z,55.54
2022-08-26T18:56:25.396Z,55.20
2022-08-26T18:58:55.392Z,55.28
2022-08-26T19:01:27.586Z,55.33
2022-08-26T19:04:00.874Z,55.42
2022-08-26T19:06:34.543Z,55.84
2022-08-26T19:09:06.698Z,55.76
2022-08-26T19:11:42.880Z,55.77
2022-08-26T19:14:16.004Z,55.76
2022-08-26T19:16:49.704Z,56.07
2022-08-26T19:19:19.424Z,55.86
2022-08-26T19:21:49.355Z,56.00
2022-08-26T19:24:22.056Z,56.37
2022-08-26T19:26:58.047Z,56.75
2022-08-26T19:29:30.392Z,56.08
2022-08-26T19:32:00.482Z,56.56
2022-08-26T19:34:31.965Z,56.25
2022-08-26T19:37:02.903Z,56.38
2022-08-26T19:39:34.147Z,56.31
2022-08-26T19:42:05.000Z,56.45
2022-08-26T19:44:53.600Z,56.08
2022-08-26T19:47:23.242Z,56.15
2022-08-26T19:50:00.353Z,56.30
2022-08-26T19:52:32.653Z,56.36
2022-08-26T19:55:05.357Z,56.39
2022-08-26T19:57:35.620Z,56.33
2022-08-26T20:00:08.400Z,56.46
2022-08-26T20:02:38.741Z,56.63
2022-08-26T20:05:09.551Z,56.64
2022-08-26T20:07:39.584Z,56.68
2022-08-26T20:10:12.344Z,56.58
2022-08-26T20:12:43.981Z,56.64
2022-08-26T20:15:14.609Z,56.50
2022-08-26T20:17:44.842Z,56.55
2022-08-26T20:20:33.109Z,56.31
2022-08-26T20:23:07.437Z,56.42
2022-08-26T20:25:38.406Z,56.58
2022-08-26T20:28:07.988Z,56.54
2022-08-26T20:30:39.140Z,56.42
2022-08-26T20:33:10.265Z,56.39
2022-08-26T20:35:39.976Z,56.16
2022-08-26T20:38:11.794Z,56.31
2022-08-26T20:40:41.888Z,56.55
2022-08-26T20:43:11.646Z,56.43
2022-08-26T20:45:42.317Z,56.36
2022-08-26T20:48:13.726Z,56.43
2022-08-26T20:50:43.903Z,56.40
2022-08-26T20:53:15.102Z,56.44
2022-08-26T20:55:44.893Z,56.47
2022-08-26T20:58:15.973Z,56.53
2022-08-26T21:00:45.640Z,56.33
2022-08-26T21:03:16.502Z,56.79
2022-08-26T21:05:46.462Z,56.20
2022-08-26T21:08:16.838Z,56.92
2022-08-26T21:10:47.197Z,56.71
2022-08-26T21:13:16.975Z,56.86
2022-08-26T21:15:46.700Z,57.04
2022-08-26T21:18:17.831Z,56.81
2022-08-26T21:20:48.180Z,56.84
2022-08-26T21:23:17.374Z,57.04
2022-08-26T21:25:47.715Z,57.00
2022-08-26T21:28:18.188Z,57.10
2022-08-26T21:30:47.888Z,56.91
2022-08-26T21:33:17.539Z,56.95
2022-08-26T21:35:57.601Z,57.32
2022-08-26T21:38:28.421Z,57.01
2022-08-26T21:41:03.394Z,57.17
2022-08-26T21:43:35.803Z,57.22
2022-08-26T21:46:17.147Z,57.32
2022-08-26T21:48:50.913Z,57.36
2022-08-26T21:51:24.392Z,57.32
2022-08-26T21:53:55.261Z,56.92
2022-08-26T21:56:26.393Z,57.30
2022-08-26T21:58:57.487Z,57.28
2022-08-26T22:01:30.564Z,57.29
2022-08-26T22:04:00.992Z,57.06
2022-08-26T22:06:31.060Z,57.29
2022-08-26T22:09:00.797Z,57.09
2022-08-26T22:11:30.993Z,57.60
2022-08-26T22:14:00.608Z,57.17
2022-08-26T22:16:31.824Z,57.38
2022-08-26T22:19:02.069Z,57.13
2022-08-26T22:21:31.840Z,57.17
2022-08-26T22:24:01.615Z,57.33
2022-08-26T22:26:33.123Z,57.17
2022-08-26T22:29:03.240Z,57.24
2022-08-26T22:31:38.373Z,57.29
2022-08-26T22:34:13.327Z,57.11
2022-08-26T22:36:45.681Z,57.39
2022-08-26T22:39:19.120Z,57.03
2022-08-26T22:41:51.601Z,57.11
2022-08-26T22:44:24.866Z,57.31
2022-08-26T22:46:56.782Z,57.21
2022-08-26T22:49:26.799Z,57.13
2022-08-26T22:51:56.290Z,57.11
2022-08-26T22:54:26.011Z,57.21
2022-08-26T22:56:55.652Z,57.16
2022-08-26T22:59:25.363Z,57.35
2022-08-26T23:01:54.783Z,56.96
2022-08-26T23:04:24.471Z,57.01
2022-08-26T23:06:54.377Z,56.88
2022-08-26T23:09:24.619Z,57.17
2022-08-26T23:11:57.421Z,57.17
2022-08-26T23:14:29.896Z,57.09
2022-08-26T23:16:59.376Z,57.21
2022-08-26T23:19:29.424Z,57.22
2022-08-26T23:21:59.085Z,57.24
2022-08-26T23:24:28.652Z,57.33
2022-08-26T23:26:58.380Z,57.15
2022-08-26T23:29:28.523Z,57.44
2022-08-26T23:31:58.524Z,57.17
2022-08-26T23:34:47.466Z,57.25
2022-08-26T23:37:19.580Z,56.95
2022-08-26T23:39:50.882Z,57.06
2022-08-26T23:42:21.610Z,57.07
2022-08-26T23:44:51.663Z,57.19
2022-08-26T23:47:21.434Z,57.42
2022-08-26T23:49:52.427Z,57.18
2022-08-26T23:52:39.746Z,57.01
2022-08-26T23:55:11.152Z,56.96
2022-08-26T23:57:41.458Z,56.97
